EFLP

Lappeenranta Airport

Lappeenranta, Finland
METAR EFLP 152150Z AUTO 00000KT CAVOK 13/12 Q1014
Observed Flight Rules
Aug-15 @ 21:50 UTC (37 minutes ago) Visual Flight Rules
Visibility Clouds
10,000+ meters
  • Clear skies
Temperatures Readings
Current 13°C / 55°F
Dewpoint 12°C / 54°F
Humidity 94%
Altimeter 29.94" Hg
Pressure 1014 hPa
Elevation 106
METAR EFLP 152150Z AUTO 00000KT CAVOK 13/12 Q1014
Observed Flight Rules
Aug-15 @ 21:50 UTC
(37 minutes ago)
VFR
Clouds
  • Clear skies
Temperature Dewpoint
13°C / 55°F 12°C / 54°F
Humidity Altimeter Pressure
94% 29.94" Hg 1014 hPa